Winters, Texas
Current Conditions -  °F | °C
As of 7:58 AM on Saturday 20 Dec 2014 (Local Time) from KDYS Reporting Station
Overcast Overcast  
Wind Chill: 44°   Ceiling: 1600
Heat Index: 44°   Visibility: 10mi
Dew Point: 37°   Wind: 2mph
Humidity: 74%   Direction: NA
Pressure: 30.19"   Gusts: NA
Location:  31.96°N, 99.96°W
Report Text: KDYS 201358Z AUTO VRB02KT 10SM OVC016 07/03 A3019 RMK AO2 SLP221 T00680025 $
Loading
Personal Weather Stations






























Interactive Weather Map New forecast layout! Learn more

10-Day Weather Forecast

Advertisements
Track Severe Weather on mobile